Flight Track Log - Related Links

Times and Time Zones

All times are in EDT time to prevent confusion due to time zone crossing. See the SKW6345 flight status page for this flight to view local times or setup timezone preferences in your user account.


Time Position Orientation Groundspeed Altitude Reporting Facility
EDT Latitude Longitude Course Direction KTS MPH feet Rate Location/Type
Tue 11:21:37 AM 37.6500 -122.3333 38° Northeast 174 200 1,500  Level Northern Cal TRACON
Tue 11:22:37 AM 37.7000 -122.2833 38° Northeast 220 253 3,800 2,191 Climbing Northern Cal TRACON
Tue 11:23:32 AM 37.7500 -122.2333 38° Northeast 262 302 5,700 2,175 Climbing Northern Cal TRACON
Tue 11:24:00 AM 37.6804 -122.3030 38° Northeast  Level FlightAware Approximate
Tue 11:25:00 AM 37.7822 -122.2012 38° Northeast  Level FlightAware Approximate
Tue 11:25:17 AM 37.8472 -122.1372 38° Northeast 282 325 9,600  Level Oakland Center
Tue 11:26:00 AM 37.8840 -122.0993 38° Northeast  Level FlightAware Approximate
Tue 11:26:18 AM 37.9139 -122.0728 37° Northeast 301 346 11,700  Level Oakland Center
Tue 11:27:20 AM 37.9828 -122.0047 38° Northeast 314 361 13,300 1,805 Climbing Oakland Center
Tue 11:28:21 AM 38.0731 -121.9161 38° Northeast 340 391 15,400 1,672 Climbing Oakland Center
Tue 11:29:22 AM 38.1500 -121.8406 38° Northeast 350 403 16,700 1,366 Climbing Oakland Center
Tue 11:30:24 AM 38.2297 -121.7628 37° Northeast 360 414 18,200 1,366 Climbing Oakland Center
Tue 11:31:25 AM 38.3150 -121.6911 33° Northeast 371 427 19,500 1,220 Climbing Oakland Center
Tue 11:32:27 AM 38.4136 -121.6447 20° North 379 436 20,700 1,122 Climbing Oakland Center
Tue 11:33:28 AM 38.5078 -121.5947 23° Northeast 383 441 21,800 1,033 Climbing Oakland Center
Tue 11:34:29 AM 38.6014 -121.5153 34° Northeast 395 455 22,800 1,024 Climbing Oakland Center
Tue 11:35:31 AM 38.6947 -121.4333 34° Northeast 398 458 23,900 1,024 Climbing Oakland Center
Tue 11:36:32 AM 38.7914 -121.3533 33° Northeast 404 465 24,900 1,024 Climbing Oakland Center
Tue 11:37:34 AM 38.9061 -121.2547 34° Northeast 411 473 26,000 927 Climbing Oakland Center
Tue 11:38:35 AM 39.0033 -121.1717 34° Northeast 416 479 26,800 787 Climbing Oakland Center
Tue 11:39:36 AM 39.1008 -121.0872 34° Northeast 420 483 27,600 732 Climbing Oakland Center
Tue 11:40:38 AM 39.1983 -121.0025 34° Northeast 422 486 28,300 634 Climbing Oakland Center
Tue 11:41:39 AM 39.2972 -120.9150 34° Northeast 428 493 28,900 537 Climbing Oakland Center
Tue 11:42:41 AM 39.3972 -120.8286 34° Northeast 432 497 29,400 439 Climbing Oakland Center
Tue 11:43:42 AM 39.4983 -120.7403 34° Northeast 437 503 29,800 390 Climbing Oakland Center
Tue 11:44:44 AM 39.6014 -120.6494 34° Northeast 446 513 30,200 390 Climbing Oakland Center
Tue 11:45:45 AM 39.7056 -120.5581 34° Northeast 450 518 30,600 390 Climbing Oakland Center
Tue 11:46:47 AM 39.8114 -120.4642 34° Northeast 459 528 31,000 439 Climbing Oakland Center
Tue 11:47:48 AM 39.9375 -120.3531 34° Northeast 456 525 31,500 488 Climbing Oakland Center
Tue 11:48:50 AM 40.0397 -120.2622 34° Northeast 458 527 32,000 488 Climbing Oakland Center
Tue 11:49:51 AM 40.1456 -120.1692 34° Northeast 457 526 32,500 488 Climbing Oakland Center
Tue 11:50:53 AM 40.2494 -120.0744 35° Northeast 455 524 33,000 244 Climbing Oakland Center
Tue 11:51:54 AM 40.3558 -119.9783 35° Northeast 460 529 33,000  Level Oakland Center
Tue 11:52:55 AM 40.4642 -119.8800 35° Northeast 469 540 33,000  Level Oakland Center
Tue 11:53:57 AM 40.5806 -119.7761 34° Northeast 474 545 33,000  Level Oakland Center
Tue 11:54:58 AM 40.6897 -119.6761 35° Northeast 479 551 33,000  Level Oakland Center
Tue 11:56:00 AM 40.8108 -119.5644 35° Northeast 488 562 33,000  Level Oakland Center
Tue 11:57:01 AM 40.9164 -119.4672 35° Northeast 483 556 33,000  Level Oakland Center
Tue 11:57:55 AM 41.0225 -119.3678 35° Northeast 484 557 33,000  Level Salt Lake Center
Tue 11:58:58 AM 41.1297 -119.2697 35° Northeast 486 559 33,000  Level Salt Lake Center
Tue 12:00:00 PM 41.2531 -119.1553 35° Northeast 484 557 33,000  Level Salt Lake Center
Tue 12:01:02 PM 41.3569 -119.0583 35° Northeast 480 552 33,000  Level Salt Lake Center
Tue 12:02:04 PM 41.4786 -118.9442 35° Northeast 477 549 33,000  Level Salt Lake Center
Tue 12:03:06 PM 41.5842 -118.8428 36° Northeast 483 556 33,000  Level Salt Lake Center
Tue 12:04:08 PM 41.7031 -118.7294 35° Northeast 474 545 33,000  Level Salt Lake Center
Tue 12:05:10 PM 41.8064 -118.6322 35° Northeast 473 544 33,000  Level Salt Lake Center
Tue 12:06:12 PM 41.9094 -118.5336 35° Northeast 473 544 33,000  Level Salt Lake Center
Tue 12:07:14 PM 42.0281 -118.4203 35° Northeast 470 541 33,000  Level Salt Lake Center
Tue 12:08:16 PM 42.1300 -118.3219 36° Northeast 469 540 33,000  Level Salt Lake Center
Tue 12:09:18 PM 42.2486 -118.2067 36° Northeast 469 540 33,000  Level Salt Lake Center
Tue 12:10:20 PM 42.3522 -118.1028 37° Northeast 475 547 33,000  Level Salt Lake Center
Tue 12:11:22 PM 42.4689 -117.9875 36° Northeast 465 535 33,000  Level Salt Lake Center
Tue 12:12:24 PM 42.5706 -117.8869 36° Northeast 472 543 33,000  Level Salt Lake Center
Tue 12:13:26 PM 42.6636 -117.7328 51° Northeast 474 545 33,000  Level Salt Lake Center
Tue 12:14:28 PM 42.7389 -117.5947 53° Northeast 474 545 33,000  Level Salt Lake Center
Tue 12:15:30 PM 42.8269 -117.4333 53° Northeast 474 545 33,000  Level Salt Lake Center
Tue 12:16:32 PM 42.9011 -117.2933 54° Northeast 474 545 33,000  Level Salt Lake Center
Tue 12:17:34 PM 42.9831 -117.1422 53° Northeast 473 544 33,000  Level Salt Lake Center
Tue 12:18:36 PM 43.0639 -116.9886 54° Northeast 476 548 33,000  Level Salt Lake Center
Tue 12:19:38 PM 43.1450 -116.8358 54° Northeast 475 547 33,000  Level Salt Lake Center
Tue 12:20:40 PM 43.2256 -116.6831 54° Northeast 475 547 33,000  Level Salt Lake Center
Tue 12:21:42 PM 43.3067 -116.5306 54° Northeast 473 544 33,000  Level Salt Lake Center
Tue 12:22:44 PM 43.3811 -116.3878 54° Northeast 476 548 33,000  Level Salt Lake Center
Tue 12:23:47 PM 43.4622 -116.2308 55° Northeast 478 550 33,000  Level Salt Lake Center
Tue 12:24:49 PM 43.5425 -116.0764 54° Northeast 475 547 33,000  Level Salt Lake Center
Tue 12:25:51 PM 43.6228 -115.9189 55° Northeast 480 552 33,000  Level Salt Lake Center
Tue 12:26:53 PM 43.7033 -115.7625 54° Northeast 477 549 33,000  Level Salt Lake Center
Tue 12:27:55 PM 43.7772 -115.6178 55° Northeast 476 548 33,000  Level Salt Lake Center
Tue 12:28:57 PM 43.8550 -115.4614 55° Northeast 475 547 33,000  Level Salt Lake Center
Tue 12:29:59 PM 43.9336 -115.3050 55° Northeast 473 544 33,000  Level Salt Lake Center
Tue 12:31:01 PM 44.0114 -115.1500 55° Northeast 470 541 33,000  Level Salt Lake Center
Tue 12:32:03 PM 44.0914 -114.9900 55° Northeast 469 540 33,000  Level Salt Lake Center
Tue 12:33:05 PM 44.1628 -114.8481 55° Northeast 466 536 33,000  Level Salt Lake Center
Tue 12:34:07 PM 44.2781 -114.7300 36° Northeast 460 529 33,000  Level Salt Lake Center
Tue 12:35:09 PM 44.3764 -114.6286 36° Northeast 460 529 33,000  Level Salt Lake Center
Tue 12:36:12 PM 44.4561 -114.4972 50° Northeast 463 533 33,000  Level Salt Lake Center
Tue 12:37:14 PM 44.5447 -114.3369 52° Northeast 464 534 33,000  Level Salt Lake Center
Tue 12:38:15 PM 44.6142 -114.1967 55° Northeast 460 529 33,000 -634 Level Salt Lake Center
Tue 12:39:17 PM 44.6856 -114.0178 61° Northeast 467 537 31,700 -1,306 Descending Salt Lake Center
Tue 12:40:19 PM 44.7483 -113.8614 60° Northeast 475 547 30,300 -1,500 Descending Salt Lake Center
Tue 12:41:21 PM 44.8203 -113.6797 61° Northeast 476 548 28,600 -1,548 Descending Salt Lake Center
Tue 12:42:23 PM 44.8822 -113.5281 60° Northeast 470 541 27,100 -1,500 Descending Salt Lake Center
Tue 12:43:25 PM 44.9514 -113.3489 61° Northeast 466 536 25,500 -1,210 Descending Salt Lake Center
Tue 12:44:27 PM 45.0131 -113.1958 60° Northeast 467 537 24,600 -968 Descending Salt Lake Center
Tue 12:45:29 PM 45.0797 -113.0222 61° Northeast 457 526 23,500 -1,008 Descending Salt Lake Center
Tue 12:46:32 PM 45.1375 -112.8742 61° Northeast 451 519 22,500 -960 Descending Salt Lake Center
Tue 12:47:34 PM 45.1939 -112.7281 61° Northeast 444 511 21,500 -1,016 Descending Salt Lake Center
Tue 12:48:36 PM 45.2603 -112.5556 61° Northeast 444 511 20,400 -1,016 Descending Salt Lake Center
Tue 12:49:38 PM 45.3153 -112.4097 62° Northeast 440 506 19,400 -1,016 Descending Salt Lake Center
Tue 12:50:40 PM 45.3789 -112.2450 61° Northeast 441 507 18,300 -871 Descending Salt Lake Center
Tue 12:51:42 PM 45.4367 -112.0931 62° Northeast 438 504 17,600 -823 Descending Salt Lake Center
Tue 12:52:44 PM 45.4925 -111.9442 62° Northeast 431 496 16,600 -968 Descending Salt Lake Center
Tue 12:53:46 PM 45.5475 -111.7958 62° Northeast 425 489 15,600 -1,258 Descending Salt Lake Center
Tue 12:54:48 PM 45.6133 -111.6200 62° Northeast 421 484 14,000 -1,935 Descending Salt Lake Center
Tue 12:55:50 PM 45.6611 -111.4914 62° Northeast 384 442 11,600 -2,274 Descending Salt Lake Center
Tue 12:56:52 PM 45.7183 -111.3967 49° Northeast 343 395 9,300 -2,129 Descending Salt Lake Center
Tue 12:57:54 PM 45.7864 -111.3394 30° Northeast 302 348 7,200 -1,210 Descending Salt Lake Center
Tue 12:58:56 PM 45.8475 -111.3264 North 245 282 6,800 -290 Descending Salt Lake Center
Tue 12:59:58 PM 45.8503 -111.2583 87° East 210 242 6,600 -581 Descending Salt Lake Center
Tue 01:01:00 PM 45.8244 -111.2125 129° Southeast 188 216 5,600 -968 Descending Salt Lake Center

Login

Don't have an account? Register now (free) for customized features, flight alerts, and more!